Time;durP1;ratioP1;P1;durP2;ratioP2;P2;SDS_P1;SDS_P2;PMS_P1;PMS_P2;Temp;Humidity;BMP_temperature;BMP_pressure;BME280_temperature;BME280_humidity;BME280_pressure;Samples;Min_cycle;Max_cycle;Signal;HPM_P1;HPM_P2
2021/03/05 00:00:40;;;;;;;1999.90;999.90;;;19.60;68.40;;;;;;5052522;28;20161;-44
2021/03/05 00:03:08;;;;;;;1999.90;999.90;;;19.60;68.20;;;;;;5052492;28;20226;-44
2021/03/05 00:05:37;;;;;;;1999.90;999.90;;;19.60;67.90;;;;;;5052573;28;20184;-46
2021/03/05 00:08:05;;;;;;;1999.90;999.90;;;19.70;66.30;;;;;;5052502;28;20173;-44
2021/03/05 00:10:35;;;;;;;1999.90;999.90;;;19.80;65.70;;;;;;5052470;28;20226;-44
2021/03/05 00:13:02;;;;;;;1999.90;999.90;;;20.00;65.10;;;;;;5052329;28;20588;-44
2021/03/05 00:15:35;;;;;;;1999.90;999.90;;;19.90;66.60;;;;;;5052456;28;20192;-44
2021/03/05 00:18:04;;;;;;;1999.90;999.90;;;19.70;67.40;;;;;;5052422;28;20515;-44
2021/03/05 00:20:33;;;;;;;1999.90;999.90;;;19.60;68.10;;;;;;5052323;28;20173;-44
2021/03/05 00:23:00;;;;;;;1999.90;999.90;;;19.50;68.50;;;;;;5053322;28;20625;-44
2021/03/05 00:25:27;;;;;;;1999.90;999.90;;;19.40;69.10;;;;;;5056200;28;20192;-44
2021/03/05 00:27:54;;;;;;;1999.90;999.90;;;19.40;69.30;;;;;;5056105;28;20185;-45
2021/03/05 00:30:21;;;;;;;1999.90;999.90;;;19.30;68.60;;;;;;5056144;28;20168;-44
2021/03/05 00:32:48;;;;;;;1999.90;999.90;;;19.50;67.60;;;;;;5055751;28;20225;-44
2021/03/05 00:35:17;;;;;;;1999.90;999.90;;;19.60;67.30;;;;;;5055921;28;20161;-45
2021/03/05 00:37:45;;;;;;;1999.90;999.90;;;19.60;67.50;;;;;;5055969;28;20169;-45
2021/03/05 00:40:14;;;;;;;1999.90;999.90;;;19.60;68.10;;;;;;5055833;28;20219;-44
2021/03/05 00:42:43;;;;;;;1999.90;999.90;;;19.50;68.70;;;;;;5055844;28;20207;-45
2021/03/05 00:45:12;;;;;;;1999.90;999.90;;;19.40;68.80;;;;;;5055797;28;20567;-44
2021/03/05 00:47:39;;;;;;;1999.90;999.90;;;19.40;69.20;;;;;;5055682;28;20211;-44
2021/03/05 00:50:07;;;;;;;1999.90;999.90;;;19.30;69.20;;;;;;5055695;28;20624;-45
2021/03/05 00:52:34;;;;;;;1999.90;999.90;;;19.40;67.30;;;;;;5055530;28;20258;-45
2021/03/05 00:55:01;;;;;;;1999.90;999.90;;;19.60;66.80;;;;;;5055586;28;20628;-44
2021/03/05 00:57:28;;;;;;;1999.90;999.90;;;19.60;67.70;;;;;;5055637;28;20222;-45
2021/03/05 00:59:55;;;;;;;1999.90;999.90;;;19.60;67.60;;;;;;5055632;28;20193;-44
2021/03/05 01:02:21;;;;;;;1999.90;999.90;;;19.50;67.70;;;;;;5055596;28;20177;-45
2021/03/05 01:04:48;;;;;;;1999.90;999.90;;;19.50;67.60;;;;;;5055358;28;20514;-45
2021/03/05 01:07:15;;;;;;;1999.90;999.90;;;19.50;68.00;;;;;;5055371;28;20635;-44
2021/03/05 01:09:42;;;;;;;1999.90;999.90;;;19.40;67.70;;;;;;5055245;28;20165;-44
2021/03/05 01:12:10;;;;;;;1999.90;999.90;;;19.50;67.30;;;;;;5055267;28;20221;-44
2021/03/05 01:14:36;;;;;;;1999.90;999.90;;;19.50;67.20;;;;;;5055238;28;20170;-45
2021/03/05 01:17:04;;;;;;;1999.90;999.90;;;19.50;67.40;;;;;;5055188;28;20287;-45
2021/03/05 01:19:31;;;;;;;1999.90;999.90;;;19.50;67.60;;;;;;5055208;28;20165;-45
2021/03/05 01:21:58;;;;;;;1999.90;999.90;;;19.40;67.80;;;;;;5055073;28;20161;-45
2021/03/05 01:24:25;;;;;;;1999.90;999.90;;;19.40;67.60;;;;;;5055156;28;20169;-44
2021/03/05 01:26:52;;;;;;;1999.90;999.90;;;19.40;67.40;;;;;;5055043;28;20193;-45
2021/03/05 01:29:19;;;;;;;1999.90;999.90;;;19.40;67.40;;;;;;5055273;28;20569;-44
2021/03/05 01:31:46;;;;;;;1999.90;999.90;;;19.30;67.20;;;;;;5054927;28;20576;-45
2021/03/05 01:34:17;;;;;;;1999.90;999.90;;;19.30;67.40;;;;;;5054280;28;20708;-45
2021/03/05 01:36:44;;;;;;;1999.90;999.90;;;19.30;67.70;;;;;;5054832;28;20184;-45
2021/03/05 01:39:11;;;;;;;1999.90;999.90;;;19.20;67.80;;;;;;5054717;28;20654;-44
2021/03/05 01:41:38;;;;;;;1999.90;999.90;;;19.10;69.50;;;;;;5054755;28;20211;-44
2021/03/05 01:44:09;;;;;;;1999.90;999.90;;;19.00;70.30;;;;;;5054710;28;20231;-43
2021/03/05 01:46:36;;;;;;;1999.90;999.90;;;18.90;71.50;;;;;;5054628;28;20169;-44
2021/03/05 01:49:03;;;;;;;1999.90;999.90;;;18.80;72.20;;;;;;5054553;28;20528;-43
2021/03/05 01:51:32;;;;;;;1999.90;999.90;;;18.70;72.70;;;;;;5054466;28;20251;-44
2021/03/05 01:54:00;;;;;;;1999.90;999.90;;;18.50;73.60;;;;;;5054638;28;20573;-43
2021/03/05 01:56:34;;;;;;;1999.90;999.90;;;18.30;74.70;;;;;;5054642;28;20176;-43
2021/03/05 01:59:03;;;;;;;1999.90;999.90;;;18.30;74.90;;;;;;5054398;28;20196;-44
2021/03/05 02:01:31;;;;;;;1999.90;999.90;;;18.20;74.90;;;;;;5054417;28;20703;-43
2021/03/05 02:03:58;;;;;;;1999.90;999.90;;;18.20;74.80;;;;;;5054432;28;20211;-43
2021/03/05 02:06:25;;;;;;;1999.90;999.90;;;18.20;75.60;;;;;;5054234;28;20177;-44
2021/03/05 02:08:52;;;;;;;1999.90;999.90;;;18.20;75.80;;;;;;5054193;28;20180;-44
2021/03/05 02:11:21;;;;;;;1999.90;999.90;;;18.00;76.00;;;;;;5054038;28;20177;-44
2021/03/05 02:13:49;;;;;;;1999.90;999.90;;;17.90;76.90;;;;;;5054070;28;20202;-43
2021/03/05 02:16:39;;;;;;;1999.90;999.90;;;17.90;77.20;;;;;;5054056;28;20632;-44
2021/03/05 02:19:32;;;;;;;1999.90;999.90;;;17.80;77.30;;;;;;5054012;28;20511;-43
2021/03/05 02:22:16;;;;;;;1999.90;999.90;;;17.80;77.80;;;;;;5053737;28;20721;-43
2021/03/05 02:25:31;;;;;;;1999.90;999.90;;;17.80;77.50;;;;;;5053942;28;20625;-43
2021/03/05 02:28:16;;;;;;;1999.90;999.90;;;17.70;77.20;;;;;;5051846;28;20177;-46
2021/03/05 02:31:05;;;;;;;1999.90;999.90;;;17.70;77.00;;;;;;5053562;28;20648;-45
2021/03/05 02:33:50;;;;;;;1999.90;999.90;;;17.60;77.60;;;;;;5053706;28;20702;-45
2021/03/05 02:36:32;;;;;;;1999.90;999.90;;;17.40;78.60;;;;;;5053665;28;20164;-45
2021/03/05 02:39:22;;;;;;;1999.90;999.90;;;17.40;79.40;;;;;;5053920;28;20612;-45
2021/03/05 02:42:01;;;;;;;1999.90;999.90;;;17.40;79.80;;;;;;5053627;28;20710;-44
2021/03/05 02:44:32;;;;;;;1999.90;999.90;;;17.20;77.00;;;;;;5053541;28;20150;-44
2021/03/05 02:47:08;;;;;;;1999.90;999.90;;;17.60;72.80;;;;;;5052756;28;20181;-44
2021/03/05 02:49:39;;;;;;;1999.90;999.90;;;18.10;70.30;;;;;;5053454;28;20149;-45
2021/03/05 02:52:09;;;;;;;1999.90;999.90;;;18.50;69.70;;;;;;5053337;28;20224;-45
2021/03/05 02:54:37;;;;;;;1999.90;999.90;;;18.60;68.80;;;;;;5053336;28;20153;-45
2021/03/05 02:57:08;;;;;;;1999.90;999.90;;;18.80;67.90;;;;;;5053458;28;20169;-45
2021/03/05 02:59:38;;;;;;;1999.90;999.90;;;18.90;66.90;;;;;;5053337;28;20173;-45
2021/03/05 03:02:06;;;;;;;1999.90;999.90;;;19.00;66.80;;;;;;5053666;28;20220;-44
2021/03/05 03:04:35;;;;;;;1999.90;999.90;;;18.90;66.90;;;;;;5053341;28;20611;-45
2021/03/05 03:07:02;;;;;;;1999.90;999.90;;;18.70;68.60;;;;;;5053295;28;20698;-45
2021/03/05 03:09:30;;;;;;;1999.90;999.90;;;18.80;66.70;;;;;;5053173;28;20175;-45
2021/03/05 03:11:57;;;;;;;1999.90;999.90;;;18.80;66.70;;;;;;5053034;28;20211;-45
2021/03/05 03:14:24;;;;;;;1999.90;999.90;;;18.90;66.90;;;;;;5053117;28;20640;-45
2021/03/05 03:16:52;;;;;;;1999.90;999.90;;;19.00;65.90;;;;;;5052994;28;20165;-44
2021/03/05 03:19:22;;;;;;;1999.90;999.90;;;19.00;65.60;;;;;;5053017;28;20565;-45
2021/03/05 03:21:49;;;;;;;1999.90;999.90;;;18.90;65.70;;;;;;5052923;28;20173;-44
2021/03/05 03:24:16;;;;;;;1999.90;999.90;;;18.80;66.30;;;;;;5052890;28;20172;-44
2021/03/05 03:26:43;;;;;;;1999.90;999.90;;;18.80;65.80;;;;;;5052936;28;20530;-43
2021/03/05 03:29:10;;;;;;;1999.90;999.90;;;18.70;67.40;;;;;;5052871;28;20180;-44
2021/03/05 03:31:39;;;;;;;1999.90;999.90;;;18.60;69.10;;;;;;5052806;28;20213;-46
2021/03/05 03:34:06;;;;;;;1999.90;999.90;;;18.40;70.20;;;;;;5052900;28;20165;-45
2021/03/05 03:36:37;;;;;;;1999.90;999.90;;;18.30;70.90;;;;;;5052826;28;20172;-46
2021/03/05 03:39:07;;;;;;;1999.90;999.90;;;18.10;71.20;;;;;;5052895;28;20222;-47
2021/03/05 03:41:35;;;;;;;1999.90;999.90;;;18.10;70.10;;;;;;5052744;28;20171;-44
2021/03/05 03:44:04;;;;;;;1999.90;999.90;;;18.00;72.10;;;;;;5052739;28;20173;-44
2021/03/05 03:46:32;;;;;;;1999.90;999.90;;;17.90;73.20;;;;;;5052650;28;20690;-44
2021/03/05 03:49:06;;;;;;;1999.90;999.90;;;17.80;72.50;;;;;;5052677;28;20667;-44
2021/03/05 03:51:41;;;;;;;1999.90;999.90;;;17.80;73.40;;;;;;5052584;28;20165;-44
2021/03/05 03:54:08;;;;;;;1999.90;999.90;;;17.70;73.90;;;;;;5053109;28;20256;-44
2021/03/05 03:56:38;;;;;;;1999.90;999.90;;;17.60;74.60;;;;;;5053024;28;20161;-44
2021/03/05 03:59:06;;;;;;;1999.90;999.90;;;17.60;74.90;;;;;;5056614;28;20618;-44
2021/03/05 04:01:35;;;;;;;1999.90;999.90;;;17.50;75.40;;;;;;5056520;28;20223;-48
2021/03/05 04:04:05;;;;;;;1999.90;999.90;;;17.40;76.60;;;;;;5056589;28;20173;-45
2021/03/05 04:06:35;;;;;;;1999.90;999.90;;;17.30;77.20;;;;;;5056494;28;20169;-45
2021/03/05 04:09:03;;;;;;;1999.90;999.90;;;17.10;78.10;;;;;;5056470;28;20178;-44
2021/03/05 04:11:31;;;;;;;1999.90;999.90;;;17.00;78.30;;;;;;5056365;28;20165;-44
2021/03/05 04:13:58;;;;;;;1999.90;999.90;;;16.90;79.20;;;;;;5056414;28;20256;-44
2021/03/05 04:16:25;;;;;;;1999.90;999.90;;;16.90;79.40;;;;;;5056317;28;20677;-44
2021/03/05 04:18:53;;;;;;;1999.90;999.90;;;16.90;80.90;;;;;;5056214;28;20222;-44
2021/03/05 04:21:23;;;;;;;1999.90;999.90;;;17.00;80.00;;;;;;5056163;28;20602;-45
2021/03/05 04:23:49;;;;;;;1999.90;999.90;;;16.90;80.30;;;;;;5056156;28;20194;-44
2021/03/05 04:26:16;;;;;;;1999.90;999.90;;;16.70;81.10;;;;;;5056061;28;20544;-44
2021/03/05 04:28:43;;;;;;;1999.90;999.90;;;16.70;81.50;;;;;;5056072;28;20173;-45
2021/03/05 04:31:10;;;;;;;1999.90;999.90;;;16.70;81.40;;;;;;5056106;28;20600;-44
2021/03/05 04:33:37;;;;;;;1999.90;999.90;;;16.80;81.30;;;;;;5055694;28;20256;-44
2021/03/05 04:36:08;;;;;;;1999.90;999.90;;;16.80;81.20;;;;;;5055794;28;20184;-44
2021/03/05 04:38:35;;;;;;;1999.90;999.90;;;16.60;81.40;;;;;;5055878;28;20157;-44
2021/03/05 04:41:01;;;;;;;1999.90;999.90;;;16.60;81.80;;;;;;5055789;28;20169;-43
2021/03/05 04:43:28;;;;;;;1999.90;999.90;;;16.60;81.80;;;;;;5055693;28;20633;-44
2021/03/05 04:45:55;;;;;;;1999.90;999.90;;;16.50;82.40;;;;;;5055684;28;20168;-44
2021/03/05 04:48:22;;;;;;;1999.90;999.90;;;16.40;82.80;;;;;;5055614;28;20216;-44
2021/03/05 04:50:49;;;;;;;1999.90;999.90;;;16.50;82.80;;;;;;5055571;28;20632;-44
2021/03/05 04:53:16;;;;;;;1999.90;999.90;;;16.50;82.80;;;;;;5055541;28;20208;-44
2021/03/05 04:55:43;;;;;;;1999.90;999.90;;;16.50;82.70;;;;;;5055623;28;20289;-44
2021/03/05 04:58:10;;;;;;;1999.90;999.90;;;16.50;82.60;;;;;;5055447;28;20200;-44
2021/03/05 05:00:36;;;;;;;1999.90;999.90;;;16.40;82.80;;;;;;5055220;28;20170;-44
2021/03/05 05:03:04;;;;;;;1999.90;999.90;;;16.40;82.90;;;;;;5055255;28;20157;-44
2021/03/05 05:05:30;;;;;;;1999.90;999.90;;;16.40;82.80;;;;;;5055324;28;20636;-46
2021/03/05 05:07:57;;;;;;;1999.90;999.90;;;16.40;82.70;;;;;;5055018;28;20165;-44
2021/03/05 05:10:24;;;;;;;1999.90;999.90;;;16.30;83.40;;;;;;5054681;28;20305;-47
2021/03/05 05:12:51;;;;;;;1999.90;999.90;;;16.30;83.30;;;;;;5054960;28;20680;-44
2021/03/05 05:15:18;;;;;;;1999.90;999.90;;;16.30;83.10;;;;;;5055010;28;20172;-47
2021/03/05 05:17:45;;;;;;;1999.90;999.90;;;16.30;83.50;;;;;;5055149;28;20173;-44
2021/03/05 05:20:12;;;;;;;1999.90;999.90;;;16.20;83.30;;;;;;5055390;28;20172;-46
2021/03/05 05:22:39;;;;;;;1999.90;999.90;;;16.30;83.40;;;;;;5054960;28;20165;-48
2021/03/05 05:25:09;;;;;;;1999.90;999.90;;;16.30;83.60;;;;;;5054764;28;20205;-47
2021/03/05 05:27:35;;;;;;;1999.90;999.90;;;16.30;83.70;;;;;;5054941;28;20244;-46
2021/03/05 05:30:04;;;;;;;1999.90;999.90;;;16.50;83.30;;;;;;5054643;28;20184;-46
2021/03/05 05:32:31;;;;;;;1999.90;999.90;;;16.50;83.00;;;;;;5054428;28;20680;-46
2021/03/05 05:34:58;;;;;;;1999.90;999.90;;;16.60;82.80;;;;;;5054533;28;20166;-45
2021/03/05 05:37:25;;;;;;;1999.90;999.90;;;16.70;82.80;;;;;;5054636;28;20170;-44
2021/03/05 05:39:51;;;;;;;1999.90;999.90;;;16.80;82.20;;;;;;5054683;28;20165;-49
2021/03/05 05:42:18;;;;;;;1999.90;999.90;;;16.90;81.90;;;;;;5054564;28;20208;-45
2021/03/05 05:44:49;;;;;;;1999.90;999.90;;;17.00;81.60;;;;;;5054640;28;20165;-45
2021/03/05 05:47:17;;;;;;;1999.90;999.90;;;17.10;81.50;;;;;;5054570;28;20168;-45
2021/03/05 05:49:45;;;;;;;1999.90;999.90;;;17.30;80.80;;;;;;5053177;28;20177;-45
2021/03/05 05:52:21;;;;;;;1999.90;999.90;;;17.40;80.20;;;;;;5054331;28;20189;-45
2021/03/05 05:54:49;;;;;;;1999.90;999.90;;;17.60;79.60;;;;;;5054347;28;20172;-46
2021/03/05 05:57:16;;;;;;;1999.90;999.90;;;17.80;78.20;;;;;;5053781;28;20184;-54
2021/03/05 05:59:43;;;;;;;1999.90;999.90;;;18.00;76.50;;;;;;5053190;28;20184;-56
2021/03/05 06:02:11;;;;;;;1999.90;999.90;;;18.40;73.90;;;;;;5053918;28;20213;-44
2021/03/05 06:04:38;;;;;;;1999.90;999.90;;;18.60;73.40;;;;;;5053811;28;20169;-53
2021/03/05 06:07:06;;;;;;;1999.90;999.90;;;18.80;72.60;;;;;;5053977;28;20663;-60
2021/03/05 06:09:33;;;;;;;1999.90;999.90;;;18.90;72.40;;;;;;5054523;28;20621;-43
2021/03/05 06:12:10;;;;;;;1999.90;999.90;;;19.10;72.90;;;;;;5053402;28;20209;-47
2021/03/05 06:14:39;;;;;;;1999.90;999.90;;;19.30;71.20;;;;;;5053634;28;20222;-56
2021/03/05 06:17:07;;;;;;;1999.90;999.90;;;19.50;70.10;;;;;;5053821;28;20168;-43
2021/03/05 06:19:34;;;;;;;1999.90;999.90;;;19.70;69.60;;;;;;5053520;28;20177;-56
2021/03/05 06:22:02;;;;;;;1999.90;999.90;;;19.80;68.80;;;;;;5053406;28;20177;-44
2021/03/05 06:24:29;;;;;;;1999.90;999.90;;;19.90;67.80;;;;;;5053658;28;20173;-51
2021/03/05 06:27:01;;;;;;;1999.90;999.90;;;20.20;67.80;;;;;;5053052;28;20230;-42
2021/03/05 06:29:38;;;;;;;1999.90;999.90;;;20.40;66.70;;;;;;5053714;28;20165;-50
2021/03/05 06:32:06;;;;;;;1999.90;999.90;;;20.60;65.70;;;;;;5053346;28;20232;-48
2021/03/05 06:34:52;;;;;;;1999.90;999.90;;;20.80;65.40;;;;;;5053399;28;20191;-48
2021/03/05 06:37:23;;;;;;;1999.90;999.90;;;20.90;64.20;;;;;;5053068;28;20192;-47
2021/03/05 06:40:06;;;;;;;1999.90;999.90;;;21.00;63.20;;;;;;5036903;28;20166;-47
2021/03/05 06:42:59;;;;;;;1999.90;999.90;;;21.30;62.50;;;;;;5033380;28;20169;-50
2021/03/05 06:45:35;;;;;;;1999.90;999.90;;;21.50;60.80;;;;;;5032148;28;20194;-50
2021/03/05 06:48:09;;;;;;;1999.90;999.90;;;21.60;61.00;;;;;;5048473;28;20176;-48
2021/03/05 06:50:39;;;;;;;1999.90;999.90;;;21.70;60.30;;;;;;5053256;28;20171;-46
2021/03/05 06:53:22;;;;;;;1999.90;999.90;;;21.80;59.30;;;;;;5053096;28;20239;-54
2021/03/05 06:55:50;;;;;;;1999.90;999.90;;;21.90;57.40;;;;;;5053374;28;20184;-58
2021/03/05 06:58:16;;;;;;;1999.90;999.90;;;22.00;56.70;;;;;;5052474;28;20228;-47
2021/03/05 07:00:43;;;;;;;1999.90;999.90;;;22.20;55.70;;;;;;5053064;28;20173;-50
2021/03/05 07:03:19;;;;;;;1999.90;999.90;;;22.30;54.00;;;;;;5053140;28;20248;-47
2021/03/05 07:05:53;;;;;;;1999.90;999.90;;;22.40;54.80;;;;;;5052821;28;20251;-60
2021/03/05 07:08:38;;;;;;;1999.90;999.90;;;22.50;53.60;;;;;;5052916;28;20157;-49
2021/03/05 07:11:12;;;;;;;1999.90;999.90;;;22.70;52.10;;;;;;5052403;28;20181;-49
2021/03/05 07:13:49;;;;;;;1999.90;999.90;;;22.90;53.30;;;;;;5052476;28;20219;-58
2021/03/05 07:16:17;;;;;;;1999.90;999.90;;;23.20;51.90;;;;;;5052192;28;20545;-59
2021/03/05 07:18:43;;;;;;;1999.90;999.90;;;23.40;51.00;;;;;;5052501;28;20215;-59
2021/03/05 07:21:11;;;;;;;1999.90;999.90;;;23.60;50.30;;;;;;5048732;28;20180;-56
2021/03/05 07:23:39;;;;;;;1999.90;999.90;;;23.80;49.50;;;;;;5052446;28;20184;-54
2021/03/05 07:26:07;;;;;;;1999.90;999.90;;;24.00;49.10;;;;;;5052249;28;20756;-56
2021/03/05 07:28:36;;;;;;;1999.90;999.90;;;24.00;48.40;;;;;;5052428;28;20523;-53
2021/03/05 07:31:04;;;;;;;1999.90;999.90;;;24.00;49.60;;;;;;5052341;28;20262;-49
2021/03/05 07:33:38;;;;;;;1999.90;999.90;;;24.20;48.00;;;;;;5050600;28;20711;-48
2021/03/05 07:36:10;;;;;;;1999.90;999.90;;;24.30;48.10;;;;;;5051046;28;20177;-57
2021/03/05 07:38:42;;;;;;;1999.90;999.90;;;24.50;47.50;;;;;;5052177;28;20165;-57
2021/03/05 07:41:09;;;;;;;1999.90;999.90;;;24.60;47.00;;;;;;5052083;28;20215;-58
2021/03/05 07:43:38;;;;;;;1999.90;999.90;;;24.80;46.50;;;;;;5052511;28;20165;-49
2021/03/05 07:46:05;;;;;;;1999.90;999.90;;;24.90;46.30;;;;;;5052040;28;20188;-56
2021/03/05 07:48:32;;;;;;;1999.90;999.90;;;25.20;46.20;;;;;;5052292;28;20256;-55
2021/03/05 07:51:00;;;;;;;1999.90;999.90;;;25.50;45.10;;;;;;5051809;28;20533;-46
2021/03/05 07:53:27;;;;;;;1999.90;999.90;;;25.70;44.10;;;;;;5052057;28;20640;-58
2021/03/05 07:55:54;;;;;;;1999.90;999.90;;;26.00;42.90;;;;;;5052205;28;20192;-45
2021/03/05 07:58:48;;;;;;;1999.90;999.90;;;26.10;42.50;;;;;;5052179;28;20196;-51
2021/03/05 08:01:14;;;;;;;1999.90;999.90;;;26.40;42.00;;;;;;5051622;28;20552;-49
2021/03/05 08:03:55;;;;;;;1999.90;999.90;;;26.80;41.40;;;;;;5052252;28;20252;-52
2021/03/05 08:06:31;;;;;;;1999.90;999.90;;;27.20;40.80;;;;;;5052188;28;20173;-56
2021/03/05 08:09:15;;;;;;;1999.90;999.90;;;27.60;40.70;;;;;;5052243;28;20165;-48
2021/03/05 08:11:42;;;;;;;1999.90;999.90;;;28.10;38.90;;;;;;5051802;28;20169;-51
2021/03/05 08:14:26;;;;;;;1999.90;999.90;;;28.20;38.30;;;;;;5050316;28;20540;-46
2021/03/05 08:16:53;;;;;;;1999.90;999.90;;;28.20;37.90;;;;;;5052007;28;20169;-50
2021/03/05 08:19:20;;;;;;;1999.90;999.90;;;28.50;37.20;;;;;;5051514;28;20582;-48
2021/03/05 08:22:00;;;;;;;1999.90;999.90;;;28.70;37.20;;;;;;5051733;28;20161;-55
2021/03/05 08:24:39;;;;;;;1999.90;999.90;;;29.10;36.40;;;;;;5039647;28;20161;-45
2021/03/05 08:27:36;;;;;;;1999.90;999.90;;;29.80;35.50;;;;;;5051873;28;20168;-44
2021/03/05 08:30:12;;;;;;;1999.90;999.90;;;30.10;34.00;;;;;;5051508;28;20173;-51
2021/03/05 08:32:58;;;;;;;1999.90;999.90;;;30.00;33.80;;;;;;5050124;28;20573;-52
2021/03/05 08:35:31;;;;;;;1999.90;999.90;;;30.30;34.00;;;;;;5051922;28;20160;-55
2021/03/05 08:38:15;;;;;;;1999.90;999.90;;;30.70;34.70;;;;;;5052383;28;20553;-49
2021/03/05 08:40:51;;;;;;;1999.90;999.90;;;31.60;33.10;;;;;;5052081;28;20207;-59
2021/03/05 08:43:30;;;;;;;1999.90;999.90;;;32.40;31.70;;;;;;5051925;28;20245;-45
2021/03/05 08:46:06;;;;;;;1999.90;999.90;;;32.70;30.90;;;;;;5054863;28;20165;-51
2021/03/05 08:48:46;;;;;;;1999.90;999.90;;;32.70;29.60;;;;;;5055167;28;20211;-51
2021/03/05 08:51:22;;;;;;;1999.90;999.90;;;33.00;30.40;;;;;;5055549;28;20165;-46
2021/03/05 08:53:52;;;;;;;1999.90;999.90;;;32.40;29.70;;;;;;5055311;28;20205;-44
2021/03/05 08:56:22;;;;;;;1999.90;999.90;;;31.30;30.80;;;;;;5055353;28;20252;-46
2021/03/05 08:59:15;;;;;;;1999.90;999.90;;;30.90;32.20;;;;;;5054924;28;20636;-55
2021/03/05 09:01:42;;;;;;;1999.90;999.90;;;30.90;31.80;;;;;;5054806;28;20196;-48
2021/03/05 09:04:20;;;;;;;1999.90;999.90;;;31.30;31.70;;;;;;5055330;28;20252;-46
2021/03/05 09:06:57;;;;;;;1999.90;999.90;;;32.00;31.10;;;;;;5055257;28;20643;-49
2021/03/05 09:09:30;;;;;;;1999.90;999.90;;;33.00;29.90;;;;;;5055263;28;20596;-47
2021/03/05 09:12:12;;;;;;;1999.90;999.90;;;33.30;29.30;;;;;;5054538;28;20209;-57
2021/03/05 09:14:44;;;;;;;1999.90;999.90;;;33.30;29.30;;;;;;5039143;28;20161;-47
2021/03/05 09:17:13;;;;;;;1999.90;999.90;;;32.60;29.50;;;;;;5055079;28;20612;-59
2021/03/05 09:19:44;;;;;;;1999.90;999.90;;;32.90;29.70;;;;;;5054958;28;20170;-47
2021/03/05 09:22:27;;;;;;;1999.90;999.90;;;32.70;29.50;;;;;;5054461;28;20164;-61
2021/03/05 09:24:58;;;;;;;1999.90;999.90;;;33.00;28.80;;;;;;5054914;28;20154;-44
2021/03/05 09:27:40;;;;;;;1999.90;999.90;;;32.60;29.70;;;;;;5054795;28;20172;-57
2021/03/05 09:30:36;;;;;;;1999.90;999.90;;;33.30;29.30;;;;;;5055173;28;20195;-46
2021/03/05 09:33:03;;;;;;;1999.90;999.90;;;33.70;29.30;;;;;;5045278;28;20259;-49
2021/03/05 09:35:31;;;;;;;1999.90;999.90;;;34.30;28.80;;;;;;5054563;28;20256;-47
2021/03/05 09:37:58;;;;;;;1999.90;999.90;;;34.40;27.80;;;;;;5054252;28;20219;-50
2021/03/05 09:40:28;;;;;;;1999.90;999.90;;;34.80;27.20;;;;;;5054509;28;20169;-46
2021/03/05 09:42:59;;;;;;;1999.90;999.90;;;35.30;26.60;;;;;;5054231;28;20185;-46
2021/03/05 09:45:39;;;;;;;1999.90;999.90;;;35.60;26.10;;;;;;5054114;28;20166;-51
2021/03/05 09:48:09;;;;;;;1999.90;999.90;;;35.30;26.60;;;;;;5053913;28;20691;-45
2021/03/05 09:50:37;;;;;;;1999.90;999.90;;;35.00;26.90;;;;;;5053909;28;20231;-53
2021/03/05 09:53:21;;;;;;;1999.90;999.90;;;34.80;26.90;;;;;;5053644;28;20216;-48
2021/03/05 09:55:53;;;;;;;1999.90;999.90;;;34.40;27.40;;;;;;5053482;28;20169;-45
2021/03/05 09:58:20;;;;;;;1999.90;999.90;;;34.30;27.10;;;;;;5052772;28;20629;-47
2021/03/05 10:00:47;;;;;;;1999.90;999.90;;;34.10;27.80;;;;;;5052766;28;20173;-44
2021/03/05 10:03:15;;;;;;;1999.90;999.90;;;34.70;27.60;;;;;;5054463;28;20212;-49
2021/03/05 10:05:44;;;;;;;1999.90;999.90;;;34.80;27.10;;;;;;5053051;28;20177;-51
2021/03/05 10:08:27;;;;;;;1999.90;999.90;;;34.80;26.80;;;;;;5052362;28;20578;-49
2021/03/05 10:11:11;;;;;;;1999.90;999.90;;;35.20;26.90;;;;;;5054098;28;20492;-50
2021/03/05 10:13:49;;;;;;;1999.90;999.90;;;34.90;26.80;;;;;;5053637;28;20221;-47
2021/03/05 10:16:28;;;;;;;1999.90;999.90;;;35.00;27.00;;;;;;5054124;28;20150;-46
2021/03/05 10:19:16;;;;;;;1999.90;999.90;;;35.10;27.10;;;;;;5053605;28;20288;-44
2021/03/05 10:21:48;;;;;;;1999.90;999.90;;;34.50;26.90;;;;;;5053847;28;20164;-44
2021/03/05 10:24:25;;;;;;;1999.90;999.90;;;34.30;27.80;;;;;;5053593;28;20173;-44
2021/03/05 10:27:18;;;;;;;1999.90;999.90;;;34.70;27.30;;;;;;5053794;28;20263;-46
2021/03/05 10:29:45;;;;;;;1999.90;999.90;;;34.90;26.70;;;;;;5053469;28;20513;-53
2021/03/05 10:32:29;;;;;;;1999.90;999.90;;;34.60;27.20;;;;;;5053517;28;20561;-43
2021/03/05 10:34:58;;;;;;;1999.90;999.90;;;34.70;26.70;;;;;;5053531;28;20161;-44
2021/03/05 10:37:25;;;;;;;1999.90;999.90;;;34.30;27.00;;;;;;5053716;28;20663;-51
2021/03/05 10:39:53;;;;;;;1999.90;999.90;;;34.60;27.10;;;;;;5053494;28;20184;-53
2021/03/05 10:42:23;;;;;;;1999.90;999.90;;;34.90;26.80;;;;;;5053524;28;20169;-47
2021/03/05 10:44:51;;;;;;;1999.90;999.90;;;34.90;27.00;;;;;;5052158;28;20268;-53
2021/03/05 10:47:20;;;;;;;1999.90;999.90;;;34.80;27.30;;;;;;5053079;28;20521;-45
2021/03/05 10:49:48;;;;;;;1999.90;999.90;;;34.70;27.20;;;;;;5052980;28;20181;-48
2021/03/05 10:52:17;;;;;;;1999.90;999.90;;;34.10;27.60;;;;;;5052549;28;20243;-45
2021/03/05 10:54:46;;;;;;;1999.90;999.90;;;34.30;28.00;;;;;;5050550;28;20177;-48
2021/03/05 10:57:15;;;;;;;1999.90;999.90;;;34.60;27.60;;;;;;5053394;28;20260;-58
2021/03/05 10:59:42;;;;;;;1999.90;999.90;;;34.80;27.60;;;;;;5053410;28;20161;-59
2021/03/05 11:02:09;;;;;;;1999.90;999.90;;;35.10;26.90;;;;;;5051693;28;20198;-46
2021/03/05 11:04:36;;;;;;;1999.90;999.90;;;35.20;26.90;;;;;;5052919;28;20169;-53
2021/03/05 11:07:04;;;;;;;1999.90;999.90;;;35.00;27.20;;;;;;5051560;28;20256;-48
2021/03/05 11:09:31;;;;;;;1999.90;999.90;;;34.60;27.20;;;;;;5052742;28;20169;-47
2021/03/05 11:11:59;;;;;;;1999.90;999.90;;;34.40;27.50;;;;;;5052659;28;20177;-59
2021/03/05 11:14:27;;;;;;;1999.90;999.90;;;34.40;27.90;;;;;;5052945;28;20185;-53
2021/03/05 11:16:54;;;;;;;1999.90;999.90;;;34.40;27.30;;;;;;5052640;28;20176;-45
2021/03/05 11:19:22;;;;;;;1999.90;999.90;;;34.60;27.50;;;;;;5052798;28;20177;-42
2021/03/05 11:21:49;;;;;;;1999.90;999.90;;;34.80;27.70;;;;;;5052440;28;20173;-45
2021/03/05 11:24:16;;;;;;;1999.90;999.90;;;34.50;27.20;;;;;;5052591;28;20168;-48
2021/03/05 11:26:43;;;;;;;1999.90;999.90;;;34.40;28.10;;;;;;5052184;28;20201;-52
2021/03/05 11:29:11;;;;;;;1999.90;999.90;;;34.40;27.80;;;;;;5052259;28;20188;-43
2021/03/05 11:31:38;;;;;;;1999.90;999.90;;;34.50;27.80;;;;;;5051960;28;20288;-42
2021/03/05 11:34:05;;;;;;;1999.90;999.90;;;34.40;27.50;;;;;;5052586;28;20596;-48
2021/03/05 11:36:32;;;;;;;1999.90;999.90;;;34.70;26.10;;;;;;5052745;28;20219;-54
2021/03/05 11:38:58;;;;;;;1999.90;999.90;;;34.90;24.80;;;;;;5051752;28;20208;-52
2021/03/05 11:41:25;;;;;;;1999.90;999.90;;;34.70;23.40;;;;;;5051718;28;20200;-52
2021/03/05 11:43:53;;;;;;;1999.90;999.90;;;35.00;23.40;;;;;;5052250;28;20688;-52
2021/03/05 11:46:22;;;;;;;1999.90;999.90;;;35.20;22.80;;;;;;5052184;28;20581;-57
2021/03/05 11:48:49;;;;;;;1999.90;999.90;;;35.00;22.50;;;;;;5052615;28;20176;-42
2021/03/05 11:51:18;;;;;;;1999.90;999.90;;;35.00;23.80;;;;;;5052804;28;20636;-61
2021/03/05 11:53:45;;;;;;;1999.90;999.90;;;35.10;24.50;;;;;;5052326;28;20682;-52
2021/03/05 11:56:12;;;;;;;1999.90;999.90;;;35.20;23.20;;;;;;5051703;28;20199;-54
2021/03/05 11:58:39;;;;;;;1999.90;999.90;;;34.90;24.00;;;;;;5052226;28;20224;-42
2021/03/05 12:01:06;;;;;;;1999.90;999.90;;;35.20;24.00;;;;;;5051997;28;20189;-44
2021/03/05 12:03:33;;;;;;;1999.90;999.90;;;35.30;24.00;;;;;;5046777;28;20165;-56
2021/03/05 12:06:00;;;;;;;1999.90;999.90;;;34.70;24.40;;;;;;5052042;28;20189;-51
2021/03/05 12:08:27;;;;;;;1999.90;999.90;;;35.20;24.30;;;;;;5052348;28;20172;-47
2021/03/05 12:10:54;;;;;;;1999.90;999.90;;;35.40;23.00;;;;;;5051543;28;20177;-46
2021/03/05 12:13:21;;;;;;;1999.90;999.90;;;35.20;22.90;;;;;;5052246;28;20205;-41
2021/03/05 12:15:48;;;;;;;1999.90;999.90;;;35.30;22.70;;;;;;5052198;28;20717;-47